sensor_id;sensor_type;location;lat;lon;timestamp;P1;durP1;ratioP1;P2;durP2;ratioP2
26014;SDS011;13793;55.388;37.844;2023-06-22T00:01:29;50.73;;;29.43;;
26014;SDS011;13793;55.388;37.844;2023-06-22T00:04:09;49.33;;;29.20;;
26014;SDS011;13793;55.388;37.844;2023-06-22T00:06:40;52.13;;;29.10;;
26014;SDS011;13793;55.388;37.844;2023-06-22T00:09:21;48.77;;;27.97;;
26014;SDS011;13793;55.388;37.844;2023-06-22T00:11:52;47.60;;;27.27;;
26014;SDS011;13793;55.388;37.844;2023-06-22T00:14:33;48.77;;;28.23;;
26014;SDS011;13793;55.388;37.844;2023-06-22T00:17:04;46.07;;;28.03;;
26014;SDS011;13793;55.388;37.844;2023-06-22T00:19:46;44.07;;;26.93;;
26014;SDS011;13793;55.388;37.844;2023-06-22T00:22:29;48.23;;;27.67;;
26014;SDS011;13793;55.388;37.844;2023-06-22T00:24:59;46.33;;;27.70;;
26014;SDS011;13793;55.388;37.844;2023-06-22T00:27:40;54.87;;;30.97;;
26014;SDS011;13793;55.388;37.844;2023-06-22T00:30:11;47.23;;;29.37;;
26014;SDS011;13793;55.388;37.844;2023-06-22T00:32:53;45.17;;;27.57;;
26014;SDS011;13793;55.388;37.844;2023-06-22T00:35:23;41.57;;;25.80;;
26014;SDS011;13793;55.388;37.844;2023-06-22T00:38:12;36.47;;;22.07;;
26014;SDS011;13793;55.388;37.844;2023-06-22T00:40:43;33.47;;;22.10;;
26014;SDS011;13793;55.388;37.844;2023-06-22T00:43:26;38.07;;;23.57;;
26014;SDS011;13793;55.388;37.844;2023-06-22T00:45:57;37.20;;;23.83;;
26014;SDS011;13793;55.388;37.844;2023-06-22T00:48:38;36.23;;;22.20;;
26014;SDS011;13793;55.388;37.844;2023-06-22T00:51:20;34.93;;;20.47;;
26014;SDS011;13793;55.388;37.844;2023-06-22T00:53:52;32.23;;;21.20;;
26014;SDS011;13793;55.388;37.844;2023-06-22T00:56:34;32.67;;;19.93;;
26014;SDS011;13793;55.388;37.844;2023-06-22T00:59:06;30.27;;;19.17;;
26014;SDS011;13793;55.388;37.844;2023-06-22T01:01:49;28.50;;;18.17;;
26014;SDS011;13793;55.388;37.844;2023-06-22T01:04:23;26.97;;;17.50;;
26014;SDS011;13793;55.388;37.844;2023-06-22T01:09:59;27.82;;;18.60;;
26014;SDS011;13793;55.388;37.844;2023-06-22T01:12:53;25.83;;;17.80;;
26014;SDS011;13793;55.388;37.844;2023-06-22T01:15:39;30.07;;;18.57;;
26014;SDS011;13793;55.388;37.844;2023-06-22T01:18:28;27.00;;;18.40;;
26014;SDS011;13793;55.388;37.844;2023-06-22T01:21:01;28.33;;;20.13;;
26014;SDS011;13793;55.388;37.844;2023-06-22T01:29:27;26.67;;;18.33;;
26014;SDS011;13793;55.388;37.844;2023-06-22T01:31:59;27.57;;;18.70;;
26014;SDS011;13793;55.388;37.844;2023-06-22T01:34:41;27.60;;;18.90;;
26014;SDS011;13793;55.388;37.844;2023-06-22T01:37:13;29.77;;;19.23;;
26014;SDS011;13793;55.388;37.844;2023-06-22T01:39:54;23.23;;;15.70;;
26014;SDS011;13793;55.388;37.844;2023-06-22T01:42:25;23.37;;;16.27;;
26014;SDS011;13793;55.388;37.844;2023-06-22T01:45:07;17.77;;;14.07;;
26014;SDS011;13793;55.388;37.844;2023-06-22T01:47:39;16.43;;;13.40;;
26014;SDS011;13793;55.388;37.844;2023-06-22T01:50:21;17.93;;;13.67;;
26014;SDS011;13793;55.388;37.844;2023-06-22T01:52:53;18.37;;;12.97;;
26014;SDS011;13793;55.388;37.844;2023-06-22T01:55:33;19.27;;;13.03;;
26014;SDS011;13793;55.388;37.844;2023-06-22T01:58:04;15.13;;;12.77;;
26014;SDS011;13793;55.388;37.844;2023-06-22T02:00:48;19.63;;;12.80;;
26014;SDS011;13793;55.388;37.844;2023-06-22T02:03:34;17.40;;;12.23;;
26014;SDS011;13793;55.388;37.844;2023-06-22T02:06:24;16.37;;;12.33;;
26014;SDS011;13793;55.388;37.844;2023-06-22T02:08:59;19.93;;;12.30;;
26014;SDS011;13793;55.388;37.844;2023-06-22T02:11:40;20.23;;;11.90;;
26014;SDS011;13793;55.388;37.844;2023-06-22T02:14:12;16.23;;;11.50;;
26014;SDS011;13793;55.388;37.844;2023-06-22T02:16:54;18.10;;;11.50;;
26014;SDS011;13793;55.388;37.844;2023-06-22T02:19:27;15.60;;;10.47;;
26014;SDS011;13793;55.388;37.844;2023-06-22T02:22:10;14.93;;;11.00;;
26014;SDS011;13793;55.388;37.844;2023-06-22T02:24:45;17.03;;;11.57;;
26014;SDS011;13793;55.388;37.844;2023-06-22T02:27:26;16.20;;;11.80;;
26014;SDS011;13793;55.388;37.844;2023-06-22T02:29:57;17.13;;;11.83;;
26014;SDS011;13793;55.388;37.844;2023-06-22T02:32:38;16.90;;;11.93;;
26014;SDS011;13793;55.388;37.844;2023-06-22T02:35:20;14.93;;;11.20;;
26014;SDS011;13793;55.388;37.844;2023-06-22T02:37:51;12.50;;;9.83;;
26014;SDS011;13793;55.388;37.844;2023-06-22T02:40:33;11.40;;;8.87;;
26014;SDS011;13793;55.388;37.844;2023-06-22T02:43:03;11.50;;;8.70;;
26014;SDS011;13793;55.388;37.844;2023-06-22T02:45:44;15.10;;;9.28;;
26014;SDS011;13793;55.388;37.844;2023-06-22T02:48:15;13.70;;;9.30;;
26014;SDS011;13793;55.388;37.844;2023-06-22T02:50:56;16.05;;;10.98;;
26014;SDS011;13793;55.388;37.844;2023-06-22T02:53:27;14.93;;;10.50;;
26014;SDS011;13793;55.388;37.844;2023-06-22T02:56:09;13.80;;;9.63;;
26014;SDS011;13793;55.388;37.844;2023-06-22T02:58:39;15.70;;;9.80;;
26014;SDS011;13793;55.388;37.844;2023-06-22T03:01:22;14.50;;;8.90;;
26014;SDS011;13793;55.388;37.844;2023-06-22T03:03:53;14.75;;;8.75;;
26014;SDS011;13793;55.388;37.844;2023-06-22T03:06:35;14.95;;;8.25;;
26014;SDS011;13793;55.388;37.844;2023-06-22T03:09:07;12.30;;;8.85;;
26014;SDS011;13793;55.388;37.844;2023-06-22T03:11:48;12.65;;;8.53;;
26014;SDS011;13793;55.388;37.844;2023-06-22T03:14:20;10.93;;;7.87;;
26014;SDS011;13793;55.388;37.844;2023-06-22T03:17:02;11.18;;;7.55;;
26014;SDS011;13793;55.388;37.844;2023-06-22T03:19:33;12.63;;;8.95;;
26014;SDS011;13793;55.388;37.844;2023-06-22T03:22:14;11.90;;;8.58;;
26014;SDS011;13793;55.388;37.844;2023-06-22T03:24:45;13.58;;;8.20;;
26014;SDS011;13793;55.388;37.844;2023-06-22T03:27:27;13.90;;;7.90;;
26014;SDS011;13793;55.388;37.844;2023-06-22T03:29:58;10.90;;;7.60;;
26014;SDS011;13793;55.388;37.844;2023-06-22T03:32:39;13.58;;;8.18;;
26014;SDS011;13793;55.388;37.844;2023-06-22T03:35:11;13.62;;;7.60;;
26014;SDS011;13793;55.388;37.844;2023-06-22T03:37:52;12.63;;;7.75;;
26014;SDS011;13793;55.388;37.844;2023-06-22T03:40:23;15.13;;;7.22;;
26014;SDS011;13793;55.388;37.844;2023-06-22T03:43:04;10.38;;;6.45;;
26014;SDS011;13793;55.388;37.844;2023-06-22T03:45:35;11.15;;;6.92;;
26014;SDS011;13793;55.388;37.844;2023-06-22T03:48:16;9.03;;;6.42;;
26014;SDS011;13793;55.388;37.844;2023-06-22T03:50:47;9.73;;;6.20;;
26014;SDS011;13793;55.388;37.844;2023-06-22T03:53:28;10.32;;;6.33;;
26014;SDS011;13793;55.388;37.844;2023-06-22T03:55:59;10.50;;;6.45;;
26014;SDS011;13793;55.388;37.844;2023-06-22T03:58:40;10.35;;;6.08;;
26014;SDS011;13793;55.388;37.844;2023-06-22T04:01:12;8.73;;;6.40;;
26014;SDS011;13793;55.388;37.844;2023-06-22T04:03:55;8.08;;;6.12;;
26014;SDS011;13793;55.388;37.844;2023-06-22T04:06:26;9.55;;;5.67;;
26014;SDS011;13793;55.388;37.844;2023-06-22T04:09:07;9.30;;;6.15;;
26014;SDS011;13793;55.388;37.844;2023-06-22T04:11:38;7.87;;;5.33;;
26014;SDS011;13793;55.388;37.844;2023-06-22T04:14:19;5.75;;;5.00;;
26014;SDS011;13793;55.388;37.844;2023-06-22T04:16:49;10.15;;;5.00;;
26014;SDS011;13793;55.388;37.844;2023-06-22T04:19:50;8.13;;;5.35;;
26014;SDS011;13793;55.388;37.844;2023-06-22T04:22:22;10.68;;;5.37;;
26014;SDS011;13793;55.388;37.844;2023-06-22T04:25:03;10.20;;;5.00;;
26014;SDS011;13793;55.388;37.844;2023-06-22T04:27:36;6.45;;;4.97;;
26014;SDS011;13793;55.388;37.844;2023-06-22T04:30:18;9.95;;;4.90;;
26014;SDS011;13793;55.388;37.844;2023-06-22T04:32:49;6.55;;;4.40;;
26014;SDS011;13793;55.388;37.844;2023-06-22T04:35:32;7.37;;;4.40;;
26014;SDS011;13793;55.388;37.844;2023-06-22T04:38:03;6.12;;;4.60;;
26014;SDS011;13793;55.388;37.844;2023-06-22T04:40:44;8.68;;;4.80;;
26014;SDS011;13793;55.388;37.844;2023-06-22T04:43:15;11.43;;;4.72;;
26014;SDS011;13793;55.388;37.844;2023-06-22T04:45:58;5.72;;;4.60;;
26014;SDS011;13793;55.388;37.844;2023-06-22T04:48:30;6.83;;;5.15;;
26014;SDS011;13793;55.388;37.844;2023-06-22T04:51:14;6.10;;;4.47;;
26014;SDS011;13793;55.388;37.844;2023-06-22T04:53:45;8.00;;;4.55;;
26014;SDS011;13793;55.388;37.844;2023-06-22T04:56:26;5.95;;;4.75;;
26014;SDS011;13793;55.388;37.844;2023-06-22T04:58:57;6.97;;;4.75;;
26014;SDS011;13793;55.388;37.844;2023-06-22T05:01:38;5.72;;;4.72;;
26014;SDS011;13793;55.388;37.844;2023-06-22T05:04:09;5.10;;;4.25;;
26014;SDS011;13793;55.388;37.844;2023-06-22T05:06:50;6.40;;;4.17;;
26014;SDS011;13793;55.388;37.844;2023-06-22T05:09:33;5.53;;;4.53;;
26014;SDS011;13793;55.388;37.844;2023-06-22T05:12:14;5.97;;;4.70;;
26014;SDS011;13793;55.388;37.844;2023-06-22T05:14:57;4.87;;;4.10;;
26014;SDS011;13793;55.388;37.844;2023-06-22T05:17:38;5.72;;;4.50;;
26014;SDS011;13793;55.388;37.844;2023-06-22T05:20:13;5.65;;;4.62;;
26014;SDS011;13793;55.388;37.844;2023-06-22T05:22:55;8.00;;;4.83;;
26014;SDS011;13793;55.388;37.844;2023-06-22T05:25:26;12.60;;;5.65;;
26014;SDS011;13793;55.388;37.844;2023-06-22T05:28:08;6.60;;;4.70;;
26014;SDS011;13793;55.388;37.844;2023-06-22T05:30:40;6.40;;;4.75;;
26014;SDS011;13793;55.388;37.844;2023-06-22T05:33:21;6.25;;;4.50;;
26014;SDS011;13793;55.388;37.844;2023-06-22T05:35:52;6.42;;;4.30;;
26014;SDS011;13793;55.388;37.844;2023-06-22T05:38:33;6.20;;;4.12;;
26014;SDS011;13793;55.388;37.844;2023-06-22T05:41:04;5.72;;;4.40;;
26014;SDS011;13793;55.388;37.844;2023-06-22T05:43:45;5.95;;;3.90;;
26014;SDS011;13793;55.388;37.844;2023-06-22T05:46:17;6.12;;;4.15;;
26014;SDS011;13793;55.388;37.844;2023-06-22T05:48:58;4.92;;;3.80;;
26014;SDS011;13793;55.388;37.844;2023-06-22T05:51:29;6.83;;;4.05;;
26014;SDS011;13793;55.388;37.844;2023-06-22T05:54:22;7.72;;;4.30;;
26014;SDS011;13793;55.388;37.844;2023-06-22T05:57:06;5.83;;;3.47;;
26014;SDS011;13793;55.388;37.844;2023-06-22T06:02:32;7.20;;;3.30;;
26014;SDS011;13793;55.388;37.844;2023-06-22T06:05:04;7.28;;;3.37;;
26014;SDS011;13793;55.388;37.844;2023-06-22T06:07:45;5.92;;;3.72;;
26014;SDS011;13793;55.388;37.844;2023-06-22T06:10:16;3.98;;;3.05;;
26014;SDS011;13793;55.388;37.844;2023-06-22T06:12:57;6.78;;;3.35;;
26014;SDS011;13793;55.388;37.844;2023-06-22T06:15:40;5.28;;;3.25;;
26014;SDS011;13793;55.388;37.844;2023-06-22T06:18:24;4.30;;;3.45;;
26014;SDS011;13793;55.388;37.844;2023-06-22T06:20:55;5.12;;;2.70;;
26014;SDS011;13793;55.388;37.844;2023-06-22T06:23:49;4.62;;;3.33;;
26014;SDS011;13793;55.388;37.844;2023-06-22T06:26:20;6.92;;;3.52;;
26014;SDS011;13793;55.388;37.844;2023-06-22T06:29:05;4.75;;;3.33;;
26014;SDS011;13793;55.388;37.844;2023-06-22T06:31:36;3.33;;;3.02;;
26014;SDS011;13793;55.388;37.844;2023-06-22T06:34:16;3.52;;;2.90;;
26014;SDS011;13793;55.388;37.844;2023-06-22T06:36:48;4.95;;;2.98;;
26014;SDS011;13793;55.388;37.844;2023-06-22T06:39:28;3.83;;;3.08;;
26014;SDS011;13793;55.388;37.844;2023-06-22T06:41:59;4.97;;;3.10;;
26014;SDS011;13793;55.388;37.844;2023-06-22T06:44:41;4.97;;;3.17;;
26014;SDS011;13793;55.388;37.844;2023-06-22T06:47:12;3.25;;;2.95;;
26014;SDS011;13793;55.388;37.844;2023-06-22T06:49:53;5.08;;;2.90;;
26014;SDS011;13793;55.388;37.844;2023-06-22T06:52:35;3.42;;;2.83;;
26014;SDS011;13793;55.388;37.844;2023-06-22T06:55:16;4.30;;;3.12;;
26014;SDS011;13793;55.388;37.844;2023-06-22T06:58:15;5.03;;;2.98;;
26014;SDS011;13793;55.388;37.844;2023-06-22T07:00:56;3.98;;;2.58;;
26014;SDS011;13793;55.388;37.844;2023-06-22T07:03:27;4.55;;;3.00;;
26014;SDS011;13793;55.388;37.844;2023-06-22T07:06:08;4.53;;;3.17;;
26014;SDS011;13793;55.388;37.844;2023-06-22T07:08:51;4.33;;;2.83;;
26014;SDS011;13793;55.388;37.844;2023-06-22T07:11:32;3.85;;;3.30;;
26014;SDS011;13793;55.388;37.844;2023-06-22T07:14:05;5.08;;;2.90;;
26014;SDS011;13793;55.388;37.844;2023-06-22T07:16:45;8.13;;;3.15;;
26014;SDS011;13793;55.388;37.844;2023-06-22T07:19:17;7.50;;;3.33;;
26014;SDS011;13793;55.388;37.844;2023-06-22T07:22:11;3.27;;;2.90;;
26014;SDS011;13793;55.388;37.844;2023-06-22T07:24:42;3.60;;;3.22;;
26014;SDS011;13793;55.388;37.844;2023-06-22T07:27:29;3.87;;;3.20;;
26014;SDS011;13793;55.388;37.844;2023-06-22T07:30:02;5.83;;;3.37;;
26014;SDS011;13793;55.388;37.844;2023-06-22T07:32:43;3.58;;;3.00;;
26014;SDS011;13793;55.388;37.844;2023-06-22T07:35:14;5.10;;;3.10;;
26014;SDS011;13793;55.388;37.844;2023-06-22T07:37:55;3.40;;;2.87;;
26014;SDS011;13793;55.388;37.844;2023-06-22T07:40:36;5.12;;;3.30;;
26014;SDS011;13793;55.388;37.844;2023-06-22T07:43:07;20.27;;;3.92;;
26014;SDS011;13793;55.388;37.844;2023-06-22T07:45:49;5.72;;;3.20;;
26014;SDS011;13793;55.388;37.844;2023-06-22T07:48:23;16.93;;;4.12;;
26014;SDS011;13793;55.388;37.844;2023-06-22T07:51:05;10.88;;;3.60;;
26014;SDS011;13793;55.388;37.844;2023-06-22T07:53:36;5.42;;;3.35;;
26014;SDS011;13793;55.388;37.844;2023-06-22T07:56:17;13.75;;;3.60;;
26014;SDS011;13793;55.388;37.844;2023-06-22T07:58:50;6.22;;;3.10;;
26014;SDS011;13793;55.388;37.844;2023-06-22T08:01:33;5.00;;;2.83;;
26014;SDS011;13793;55.388;37.844;2023-06-22T08:04:04;3.77;;;3.02;;
26014;SDS011;13793;55.388;37.844;2023-06-22T08:06:44;6.25;;;3.37;;
26014;SDS011;13793;55.388;37.844;2023-06-22T08:09:15;6.22;;;3.30;;
26014;SDS011;13793;55.388;37.844;2023-06-22T08:11:56;4.30;;;3.22;;
26014;SDS011;13793;55.388;37.844;2023-06-22T08:14:29;5.65;;;3.25;;
26014;SDS011;13793;55.388;37.844;2023-06-22T08:17:10;3.87;;;3.33;;
26014;SDS011;13793;55.388;37.844;2023-06-22T08:19:40;3.87;;;3.40;;
26014;SDS011;13793;55.388;37.844;2023-06-22T08:22:21;3.77;;;3.15;;
26014;SDS011;13793;55.388;37.844;2023-06-22T08:24:52;5.62;;;3.52;;
26014;SDS011;13793;55.388;37.844;2023-06-22T08:27:33;6.47;;;3.70;;
26014;SDS011;13793;55.388;37.844;2023-06-22T08:30:04;6.45;;;3.20;;
26014;SDS011;13793;55.388;37.844;2023-06-22T08:32:46;4.42;;;3.10;;
26014;SDS011;13793;55.388;37.844;2023-06-22T08:35:17;3.92;;;3.15;;
26014;SDS011;13793;55.388;37.844;2023-06-22T08:37:58;4.10;;;3.10;;
26014;SDS011;13793;55.388;37.844;2023-06-22T08:40:30;4.70;;;3.10;;
26014;SDS011;13793;55.388;37.844;2023-06-22T08:43:11;4.35;;;3.10;;
26014;SDS011;13793;55.388;37.844;2023-06-22T08:45:42;8.45;;;3.30;;
26014;SDS011;13793;55.388;37.844;2023-06-22T08:48:23;4.80;;;3.27;;
26014;SDS011;13793;55.388;37.844;2023-06-22T08:50:54;6.80;;;3.27;;
26014;SDS011;13793;55.388;37.844;2023-06-22T08:53:35;4.22;;;3.37;;
26014;SDS011;13793;55.388;37.844;2023-06-22T08:56:16;3.58;;;3.27;;
26014;SDS011;13793;55.388;37.844;2023-06-22T08:58:47;4.92;;;3.22;;
26014;SDS011;13793;55.388;37.844;2023-06-22T09:01:28;5.20;;;3.50;;
26014;SDS011;13793;55.388;37.844;2023-06-22T09:03:59;7.30;;;3.37;;
26014;SDS011;13793;55.388;37.844;2023-06-22T09:06:40;4.33;;;3.10;;
26014;SDS011;13793;55.388;37.844;2023-06-22T09:09:12;7.10;;;3.45;;
26014;SDS011;13793;55.388;37.844;2023-06-22T09:11:53;5.33;;;3.47;;
26014;SDS011;13793;55.388;37.844;2023-06-22T09:14:24;4.53;;;3.30;;
26014;SDS011;13793;55.388;37.844;2023-06-22T09:17:05;5.42;;;3.72;;
26014;SDS011;13793;55.388;37.844;2023-06-22T09:19:36;5.60;;;3.30;;
26014;SDS011;13793;55.388;37.844;2023-06-22T09:22:17;5.85;;;3.80;;
26014;SDS011;13793;55.388;37.844;2023-06-22T09:24:48;5.42;;;3.62;;
26014;SDS011;13793;55.388;37.844;2023-06-22T09:27:29;4.25;;;3.52;;
26014;SDS011;13793;55.388;37.844;2023-06-22T09:30:01;8.45;;;3.95;;
26014;SDS011;13793;55.388;37.844;2023-06-22T09:33:00;3.92;;;3.15;;
26014;SDS011;13793;55.388;37.844;2023-06-22T09:35:31;4.28;;;3.42;;
26014;SDS011;13793;55.388;37.844;2023-06-22T09:38:12;4.15;;;3.37;;
26014;SDS011;13793;55.388;37.844;2023-06-22T09:40:44;5.10;;;3.67;;
26014;SDS011;13793;55.388;37.844;2023-06-22T09:43:25;4.20;;;3.80;;
26014;SDS011;13793;55.388;37.844;2023-06-22T09:45:56;4.05;;;3.40;;
26014;SDS011;13793;55.388;37.844;2023-06-22T09:48:37;4.30;;;3.17;;
26014;SDS011;13793;55.388;37.844;2023-06-22T09:51:08;7.42;;;3.52;;
26014;SDS011;13793;55.388;37.844;2023-06-22T09:53:49;4.40;;;3.22;;
26014;SDS011;13793;55.388;37.844;2023-06-22T09:56:22;4.22;;;3.22;;
26014;SDS011;13793;55.388;37.844;2023-06-22T09:59:03;4.60;;;3.20;;
26014;SDS011;13793;55.388;37.844;2023-06-22T10:01:34;6.92;;;3.47;;
26014;SDS011;13793;55.388;37.844;2023-06-22T10:04:14;6.28;;;3.10;;
26014;SDS011;13793;55.388;37.844;2023-06-22T10:06:45;4.28;;;3.30;;
26014;SDS011;13793;55.388;37.844;2023-06-22T10:09:26;3.92;;;3.52;;
26014;SDS011;13793;55.388;37.844;2023-06-22T10:11:57;3.85;;;3.45;;
26014;SDS011;13793;55.388;37.844;2023-06-22T10:14:38;5.55;;;3.15;;
26014;SDS011;13793;55.388;37.844;2023-06-22T10:17:09;3.60;;;3.12;;
26014;SDS011;13793;55.388;37.844;2023-06-22T10:19:50;16.37;;;14.00;;
26014;SDS011;13793;55.388;37.844;2023-06-22T10:22:21;11.10;;;9.28;;
26014;SDS011;13793;55.388;37.844;2023-06-22T10:25:02;4.85;;;4.12;;
26014;SDS011;13793;55.388;37.844;2023-06-22T10:27:33;4.78;;;3.70;;
26014;SDS011;13793;55.388;37.844;2023-06-22T10:30:14;4.20;;;3.42;;
26014;SDS011;13793;55.388;37.844;2023-06-22T10:32:45;6.45;;;3.92;;
26014;SDS011;13793;55.388;37.844;2023-06-22T10:35:32;4.22;;;3.83;;
26014;SDS011;13793;55.388;37.844;2023-06-22T10:38:03;4.40;;;3.50;;
26014;SDS011;13793;55.388;37.844;2023-06-22T10:40:44;3.83;;;3.50;;
26014;SDS011;13793;55.388;37.844;2023-06-22T10:43:15;5.50;;;3.67;;
26014;SDS011;13793;55.388;37.844;2023-06-22T10:45:56;4.50;;;3.40;;
26014;SDS011;13793;55.388;37.844;2023-06-22T10:48:27;3.37;;;2.95;;
26014;SDS011;13793;55.388;37.844;2023-06-22T10:51:31;4.37;;;3.60;;
26014;SDS011;13793;55.388;37.844;2023-06-22T10:54:02;3.70;;;3.30;;
26014;SDS011;13793;55.388;37.844;2023-06-22T10:56:43;25.20;;;22.60;;
26014;SDS011;13793;55.388;37.844;2023-06-22T10:59:14;6.62;;;5.33;;
26014;SDS011;13793;55.388;37.844;2023-06-22T11:01:55;4.80;;;4.10;;
26014;SDS011;13793;55.388;37.844;2023-06-22T11:04:39;5.20;;;4.08;;
26014;SDS011;13793;55.388;37.844;2023-06-22T11:07:20;6.72;;;3.55;;
26014;SDS011;13793;55.388;37.844;2023-06-22T11:09:51;4.45;;;3.47;;
26014;SDS011;13793;55.388;37.844;2023-06-22T11:12:43;5.45;;;3.20;;
26014;SDS011;13793;55.388;37.844;2023-06-22T11:15:14;4.00;;;3.60;;
26014;SDS011;13793;55.388;37.844;2023-06-22T11:17:55;4.08;;;3.67;;
26014;SDS011;13793;55.388;37.844;2023-06-22T11:20:26;4.62;;;3.87;;
26014;SDS011;13793;55.388;37.844;2023-06-22T11:23:07;5.22;;;3.90;;
26014;SDS011;13793;55.388;37.844;2023-06-22T11:25:38;7.15;;;3.90;;
26014;SDS011;13793;55.388;37.844;2023-06-22T11:28:20;4.45;;;3.70;;
26014;SDS011;13793;55.388;37.844;2023-06-22T11:30:51;5.17;;;3.52;;
26014;SDS011;13793;55.388;37.844;2023-06-22T11:33:32;4.75;;;3.60;;
26014;SDS011;13793;55.388;37.844;2023-06-22T11:36:03;4.00;;;3.70;;
26014;SDS011;13793;55.388;37.844;2023-06-22T11:38:56;4.75;;;3.92;;
26014;SDS011;13793;55.388;37.844;2023-06-22T11:41:27;6.17;;;3.72;;
26014;SDS011;13793;55.388;37.844;2023-06-22T11:44:08;6.08;;;4.03;;
26014;SDS011;13793;55.388;37.844;2023-06-22T11:46:39;5.17;;;3.70;;
26014;SDS011;13793;55.388;37.844;2023-06-22T11:49:20;5.12;;;3.72;;
26014;SDS011;13793;55.388;37.844;2023-06-22T11:51:50;7.60;;;4.08;;
26014;SDS011;13793;55.388;37.844;2023-06-22T11:54:32;5.58;;;3.75;;
26014;SDS011;13793;55.388;37.844;2023-06-22T11:57:03;6.92;;;4.03;;
26014;SDS011;13793;55.388;37.844;2023-06-22T11:59:44;5.40;;;3.98;;
26014;SDS011;13793;55.388;37.844;2023-06-22T12:02:15;4.30;;;3.90;;
26014;SDS011;13793;55.388;37.844;2023-06-22T12:04:56;4.83;;;3.77;;
26014;SDS011;13793;55.388;37.844;2023-06-22T12:07:27;4.60;;;3.62;;
26014;SDS011;13793;55.388;37.844;2023-06-22T12:10:08;3.60;;;3.30;;
26014;SDS011;13793;55.388;37.844;2023-06-22T12:12:39;4.85;;;3.62;;
26014;SDS011;13793;55.388;37.844;2023-06-22T12:15:20;4.80;;;3.77;;
26014;SDS011;13793;55.388;37.844;2023-06-22T12:17:52;6.65;;;4.08;;
26014;SDS011;13793;55.388;37.844;2023-06-22T12:20:32;5.85;;;3.80;;
26014;SDS011;13793;55.388;37.844;2023-06-22T12:23:03;4.22;;;3.80;;
26014;SDS011;13793;55.388;37.844;2023-06-22T12:25:44;4.12;;;3.75;;
26014;SDS011;13793;55.388;37.844;2023-06-22T12:28:15;4.58;;;3.85;;
26014;SDS011;13793;55.388;37.844;2023-06-22T12:30:56;5.47;;;3.95;;
26014;SDS011;13793;55.388;37.844;2023-06-22T12:33:27;4.42;;;4.03;;
26014;SDS011;13793;55.388;37.844;2023-06-22T12:36:09;4.33;;;3.67;;
26014;SDS011;13793;55.388;37.844;2023-06-22T12:38:40;4.62;;;4.17;;
26014;SDS011;13793;55.388;37.844;2023-06-22T12:41:21;6.95;;;4.22;;
26014;SDS011;13793;55.388;37.844;2023-06-22T12:43:52;8.05;;;7.17;;
26014;SDS011;13793;55.388;37.844;2023-06-22T12:46:33;5.53;;;4.70;;
26014;SDS011;13793;55.388;37.844;2023-06-22T12:49:05;4.53;;;4.10;;
26014;SDS011;13793;55.388;37.844;2023-06-22T12:51:46;6.22;;;4.20;;
26014;SDS011;13793;55.388;37.844;2023-06-22T12:54:17;4.42;;;4.00;;
26014;SDS011;13793;55.388;37.844;2023-06-22T12:56:58;4.75;;;3.60;;
26014;SDS011;13793;55.388;37.844;2023-06-22T12:59:29;5.53;;;4.40;;
26014;SDS011;13793;55.388;37.844;2023-06-22T13:02:10;4.85;;;3.60;;
26014;SDS011;13793;55.388;37.844;2023-06-22T13:04:42;4.97;;;3.90;;
26014;SDS011;13793;55.388;37.844;2023-06-22T13:07:23;7.05;;;3.92;;
26014;SDS011;13793;55.388;37.844;2023-06-22T13:09:54;4.10;;;3.70;;
26014;SDS011;13793;55.388;37.844;2023-06-22T13:12:35;4.53;;;4.12;;
26014;SDS011;13793;55.388;37.844;2023-06-22T13:15:06;5.55;;;4.05;;
26014;SDS011;13793;55.388;37.844;2023-06-22T13:17:47;4.30;;;3.70;;
26014;SDS011;13793;55.388;37.844;2023-06-22T13:20:18;4.40;;;4.00;;
26014;SDS011;13793;55.388;37.844;2023-06-22T13:22:59;5.30;;;4.03;;
26014;SDS011;13793;55.388;37.844;2023-06-22T13:25:30;4.92;;;3.77;;
26014;SDS011;13793;55.388;37.844;2023-06-22T13:28:11;4.12;;;3.75;;
26014;SDS011;13793;55.388;37.844;2023-06-22T13:30:42;4.95;;;3.90;;
26014;SDS011;13793;55.388;37.844;2023-06-22T13:33:24;3.90;;;3.50;;
26014;SDS011;13793;55.388;37.844;2023-06-22T13:35:55;4.40;;;3.90;;
26014;SDS011;13793;55.388;37.844;2023-06-22T13:38:36;6.42;;;4.22;;
26014;SDS011;13793;55.388;37.844;2023-06-22T13:41:10;3.87;;;3.52;;
26014;SDS011;13793;55.388;37.844;2023-06-22T13:43:51;4.25;;;3.85;;
26014;SDS011;13793;55.388;37.844;2023-06-22T13:46:22;5.72;;;3.50;;
26014;SDS011;13793;55.388;37.844;2023-06-22T13:49:03;4.45;;;3.70;;
26014;SDS011;13793;55.388;37.844;2023-06-22T13:51:34;5.58;;;4.05;;
26014;SDS011;13793;55.388;37.844;2023-06-22T13:54:16;4.50;;;4.08;;
26014;SDS011;13793;55.388;37.844;2023-06-22T13:56:59;5.55;;;4.20;;
26014;SDS011;13793;55.388;37.844;2023-06-22T13:59:40;4.28;;;3.87;;
26014;SDS011;13793;55.388;37.844;2023-06-22T14:02:11;4.65;;;3.60;;
26014;SDS011;13793;55.388;37.844;2023-06-22T14:04:52;4.92;;;4.03;;
26014;SDS011;13793;55.388;37.844;2023-06-22T14:07:23;4.53;;;3.98;;
26014;SDS011;13793;55.388;37.844;2023-06-22T14:10:04;5.90;;;3.92;;
26014;SDS011;13793;55.388;37.844;2023-06-22T14:12:36;5.83;;;3.87;;
26014;SDS011;13793;55.388;37.844;2023-06-22T14:15:17;5.55;;;4.28;;
26014;SDS011;13793;55.388;37.844;2023-06-22T14:17:48;4.35;;;3.95;;
26014;SDS011;13793;55.388;37.844;2023-06-22T14:20:29;4.78;;;4.25;;
26014;SDS011;13793;55.388;37.844;2023-06-22T14:23:00;4.20;;;3.80;;
26014;SDS011;13793;55.388;37.844;2023-06-22T14:25:40;4.58;;;3.87;;
26014;SDS011;13793;55.388;37.844;2023-06-22T14:28:40;5.30;;;4.40;;
26014;SDS011;13793;55.388;37.844;2023-06-22T14:31:11;4.42;;;4.03;;
26014;SDS011;13793;55.388;37.844;2023-06-22T14:33:52;4.97;;;4.22;;
26014;SDS011;13793;55.388;37.844;2023-06-22T14:36:23;5.12;;;4.58;;
26014;SDS011;13793;55.388;37.844;2023-06-22T14:39:04;5.05;;;4.55;;
26014;SDS011;13793;55.388;37.844;2023-06-22T14:41:35;6.72;;;4.35;;
26014;SDS011;13793;55.388;37.844;2023-06-22T14:44:16;4.72;;;4.10;;
26014;SDS011;13793;55.388;37.844;2023-06-22T14:46:47;4.45;;;4.05;;
26014;SDS011;13793;55.388;37.844;2023-06-22T14:49:28;4.90;;;4.17;;
26014;SDS011;13793;55.388;37.844;2023-06-22T14:51:59;4.75;;;4.35;;
26014;SDS011;13793;55.388;37.844;2023-06-22T14:54:40;5.22;;;4.45;;
26014;SDS011;13793;55.388;37.844;2023-06-22T14:57:11;5.78;;;4.53;;
26014;SDS011;13793;55.388;37.844;2023-06-22T14:59:59;4.60;;;4.20;;
26014;SDS011;13793;55.388;37.844;2023-06-22T15:02:32;4.60;;;4.20;;
26014;SDS011;13793;55.388;37.844;2023-06-22T15:05:13;4.40;;;3.90;;
26014;SDS011;13793;55.388;37.844;2023-06-22T15:07:44;9.45;;;5.45;;
26014;SDS011;13793;55.388;37.844;2023-06-22T15:10:25;6.12;;;4.72;;
26014;SDS011;13793;55.388;37.844;2023-06-22T15:12:56;6.35;;;4.33;;
26014;SDS011;13793;55.388;37.844;2023-06-22T15:15:37;5.40;;;4.33;;
26014;SDS011;13793;55.388;37.844;2023-06-22T15:18:08;5.33;;;4.55;;
26014;SDS011;13793;55.388;37.844;2023-06-22T15:20:49;7.83;;;5.25;;
26014;SDS011;13793;55.388;37.844;2023-06-22T15:23:20;5.03;;;4.50;;
26014;SDS011;13793;55.388;37.844;2023-06-22T15:26:02;7.37;;;4.87;;
26014;SDS011;13793;55.388;37.844;2023-06-22T15:28:37;5.08;;;4.60;;
26014;SDS011;13793;55.388;37.844;2023-06-22T15:31:18;5.65;;;4.17;;
26014;SDS011;13793;55.388;37.844;2023-06-22T15:33:49;4.83;;;4.37;;
26014;SDS011;13793;55.388;37.844;2023-06-22T15:36:30;5.95;;;4.45;;
26014;SDS011;13793;55.388;37.844;2023-06-22T15:39:02;4.65;;;4.25;;